createdAt,value
2019-01-26T00:01:54.081Z,68.47
2019-01-26T00:04:22.022Z,67.57
2019-01-26T00:06:50.144Z,57.20
2019-01-26T00:09:18.298Z,64.57
2019-01-26T00:11:46.393Z,65.00
2019-01-26T00:14:15.475Z,66.57
2019-01-26T00:16:43.332Z,65.50
2019-01-26T00:19:13.677Z,59.57
2019-01-26T00:21:41.811Z,62.13
2019-01-26T00:24:14.474Z,56.20
2019-01-26T00:26:42.530Z,52.60
2019-01-26T00:29:10.448Z,67.87
2019-01-26T00:31:38.401Z,55.60
2019-01-26T00:34:06.526Z,58.10
2019-01-26T00:36:34.779Z,55.90
2019-01-26T00:39:05.183Z,59.27
2019-01-26T00:41:33.683Z,56.37
2019-01-26T00:44:01.633Z,58.67
2019-01-26T00:46:29.529Z,56.80
2019-01-26T00:48:57.716Z,57.10
2019-01-26T00:51:25.796Z,57.83
2019-01-26T00:53:55.860Z,56.37
2019-01-26T00:56:23.995Z,46.83
2019-01-26T00:58:52.034Z,52.43
2019-01-26T01:01:20.173Z,57.50
2019-01-26T01:03:48.291Z,59.10
2019-01-26T01:06:16.341Z,62.43
2019-01-26T01:08:44.511Z,59.27
2019-01-26T01:11:13.087Z,53.73
2019-01-26T01:13:41.120Z,52.77
2019-01-26T01:16:09.261Z,61.80
2019-01-26T01:18:38.275Z,57.43
2019-01-26T01:21:06.211Z,58.80
2019-01-26T01:23:34.342Z,61.73
2019-01-26T01:26:02.334Z,73.17
2019-01-26T01:28:30.573Z,66.43
2019-01-26T01:30:58.728Z,66.63
2019-01-26T01:33:26.740Z,61.57
2019-01-26T01:35:54.775Z,70.60
2019-01-26T01:38:24.018Z,62.33
2019-01-26T01:40:52.032Z,61.00
2019-01-26T01:43:20.127Z,51.03
2019-01-26T01:45:50.166Z,53.67
2019-01-26T01:48:18.093Z,65.37
2019-01-26T01:50:46.171Z,54.27
2019-01-26T01:53:14.086Z,62.93
2019-01-26T01:55:42.198Z,53.73
2019-01-26T01:58:10.334Z,73.93
2019-01-26T02:00:38.610Z,56.03
2019-01-26T02:03:06.971Z,53.73
2019-01-26T02:05:35.020Z,50.03
2019-01-26T02:08:03.193Z,52.83
2019-01-26T02:10:31.846Z,51.77
2019-01-26T02:12:59.972Z,61.63
2019-01-26T02:15:28.481Z,43.90
2019-01-26T02:17:58.879Z,53.73
2019-01-26T02:20:26.923Z,43.13
2019-01-26T02:22:55.726Z,46.47
2019-01-26T02:25:23.804Z,44.47
2019-01-26T02:27:51.767Z,56.17
2019-01-26T02:30:23.928Z,46.50
2019-01-26T02:32:55.519Z,54.27
2019-01-26T02:35:23.490Z,39.00
2019-01-26T02:37:51.561Z,40.17
2019-01-26T02:40:19.606Z,38.20
2019-01-26T02:42:53.430Z,38.17
2019-01-26T02:45:19.230Z,43.13
2019-01-26T02:47:48.222Z,47.97
2019-01-26T02:50:19.252Z,35.50
2019-01-26T02:52:57.961Z,33.17
2019-01-26T02:55:26.077Z,40.73
2019-01-26T02:57:54.257Z,43.30
2019-01-26T03:00:23.290Z,41.07
2019-01-26T03:02:51.426Z,39.07
2019-01-26T03:05:19.345Z,40.53
2019-01-26T03:07:47.498Z,34.63
2019-01-26T03:10:18.559Z,53.47
2019-01-26T03:12:49.829Z,48.00
2019-01-26T03:15:20.030Z,40.27
2019-01-26T03:17:49.978Z,43.50
2019-01-26T03:20:18.439Z,38.43
2019-01-26T03:22:48.181Z,35.00
2019-01-26T03:25:16.289Z,35.70
2019-01-26T03:27:45.384Z,33.13
2019-01-26T03:30:21.028Z,40.30
2019-01-26T03:32:49.100Z,31.47
2019-01-26T03:35:23.695Z,34.47
2019-01-26T03:37:51.873Z,39.00
2019-01-26T03:40:21.382Z,39.30
2019-01-26T03:42:54.045Z,35.93
2019-01-26T03:45:23.705Z,34.97
2019-01-26T03:47:51.797Z,35.33
2019-01-26T03:50:19.679Z,33.20
2019-01-26T03:52:48.116Z,35.13
2019-01-26T03:55:18.704Z,33.80
2019-01-26T03:57:46.805Z,38.47
2019-01-26T04:00:18.597Z,40.57
2019-01-26T04:02:46.583Z,33.00
2019-01-26T04:05:15.339Z,32.67
2019-01-26T04:07:43.550Z,32.33
2019-01-26T04:10:16.157Z,32.53
2019-01-26T04:12:44.573Z,31.73
2019-01-26T04:15:14.749Z,37.40
2019-01-26T04:17:42.649Z,33.27
2019-01-26T04:20:16.838Z,31.63
2019-01-26T04:22:44.915Z,36.00
2019-01-26T04:25:12.897Z,35.17
2019-01-26T04:27:42.066Z,31.20
2019-01-26T04:30:15.914Z,35.23
2019-01-26T04:32:43.897Z,35.30
2019-01-26T04:35:16.306Z,37.43
2019-01-26T04:37:44.347Z,30.97
2019-01-26T04:40:15.862Z,29.30
2019-01-26T04:42:44.328Z,34.37
2019-01-26T04:45:19.439Z,34.37
2019-01-26T04:47:48.494Z,38.97
2019-01-26T04:50:16.747Z,35.60
2019-01-26T04:52:44.941Z,48.67
2019-01-26T04:55:15.426Z,43.03
2019-01-26T04:57:53.769Z,42.10
2019-01-26T05:00:29.392Z,38.10
2019-01-26T05:02:57.335Z,48.07
2019-01-26T05:05:25.248Z,38.37
2019-01-26T05:07:53.356Z,40.60
2019-01-26T05:10:21.496Z,44.10
2019-01-26T05:12:51.923Z,41.40
2019-01-26T05:15:20.250Z,44.90
2019-01-26T05:17:57.064Z,46.60
2019-01-26T05:20:29.272Z,43.07
2019-01-26T05:22:57.765Z,42.23
2019-01-26T05:25:25.879Z,52.00
2019-01-26T05:27:56.218Z,47.30
2019-01-26T05:30:30.777Z,45.13
2019-01-26T05:32:58.985Z,48.63
2019-01-26T05:35:29.507Z,49.20
2019-01-26T05:37:57.377Z,46.43
2019-01-26T05:40:28.387Z,49.80
2019-01-26T05:43:01.471Z,45.13
2019-01-26T05:45:29.455Z,43.73
2019-01-26T05:48:02.076Z,47.53
2019-01-26T05:50:34.503Z,51.17
2019-01-26T05:53:05.614Z,40.07
2019-01-26T05:55:33.775Z,49.63
2019-01-26T05:58:04.271Z,50.60
2019-01-26T06:00:43.346Z,37.23
2019-01-26T06:03:13.794Z,46.40
2019-01-26T06:05:52.979Z,43.77
2019-01-26T06:08:27.067Z,40.50
2019-01-26T06:10:55.145Z,42.03
2019-01-26T06:13:24.515Z,39.50
2019-01-26T06:15:52.887Z,39.10
2019-01-26T06:18:21.012Z,39.83
2019-01-26T06:20:49.501Z,43.60
2019-01-26T06:23:21.374Z,33.97
2019-01-26T06:25:52.704Z,40.87
2019-01-26T06:28:26.504Z,33.90
2019-01-26T06:30:54.559Z,36.23
2019-01-26T06:33:23.345Z,32.70
2019-01-26T06:35:52.683Z,37.80
2019-01-26T06:38:21.829Z,38.37
2019-01-26T06:40:49.833Z,38.03
2019-01-26T06:43:20.143Z,39.40
2019-01-26T06:45:50.093Z,33.83
2019-01-26T06:48:19.086Z,33.63
2019-01-26T06:50:50.087Z,38.40
2019-01-26T06:53:20.477Z,32.87
2019-01-26T06:55:48.408Z,34.23
2019-01-26T06:58:24.468Z,37.00
2019-01-26T07:00:52.452Z,35.70
2019-01-26T07:03:20.781Z,35.83
2019-01-26T07:05:59.757Z,34.57
2019-01-26T07:08:27.999Z,41.50
2019-01-26T07:10:56.328Z,37.50
2019-01-26T07:13:27.914Z,42.00
2019-01-26T07:16:07.326Z,37.37
2019-01-26T07:18:35.586Z,35.33
2019-01-26T07:21:03.765Z,33.93
2019-01-26T07:23:33.194Z,30.20
2019-01-26T07:26:03.643Z,33.87
2019-01-26T07:28:32.790Z,35.33
2019-01-26T07:31:01.742Z,31.97
2019-01-26T07:33:29.854Z,32.23
2019-01-26T07:36:05.647Z,37.63
2019-01-26T07:38:36.871Z,44.70
2019-01-26T07:41:05.919Z,37.23
2019-01-26T07:43:37.718Z,36.53
2019-01-26T07:46:25.951Z,33.17
2019-01-26T07:48:54.309Z,33.70
2019-01-26T07:51:25.060Z,41.03
2019-01-26T07:53:58.534Z,39.37
2019-01-26T07:56:29.231Z,45.07
2019-01-26T07:59:03.635Z,48.17
2019-01-26T08:01:35.594Z,46.53
2019-01-26T08:04:05.844Z,43.87
2019-01-26T08:06:33.841Z,46.97
2019-01-26T08:09:13.909Z,59.17
2019-01-26T08:11:43.042Z,55.60
2019-01-26T08:14:11.491Z,48.17
2019-01-26T08:16:41.578Z,50.20
2019-01-26T08:19:11.965Z,52.93
2019-01-26T08:21:42.940Z,51.67
2019-01-26T08:24:11.351Z,55.40
2019-01-26T08:26:42.632Z,46.37
2019-01-26T08:29:15.594Z,54.00
2019-01-26T08:31:45.068Z,55.97
2019-01-26T08:34:13.361Z,51.50
2019-01-26T08:36:42.314Z,50.90
2019-01-26T08:39:11.829Z,58.03
2019-01-26T08:41:47.330Z,49.13
2019-01-26T08:44:15.225Z,46.70
2019-01-26T08:46:43.203Z,41.40
2019-01-26T08:49:11.235Z,52.60
2019-01-26T08:51:41.429Z,43.40
2019-01-26T08:54:09.335Z,38.93
2019-01-26T08:56:37.840Z,39.10
2019-01-26T08:59:12.849Z,38.40
2019-01-26T09:01:41.429Z,35.73
2019-01-26T09:04:21.915Z,30.93
2019-01-26T09:06:55.001Z,33.07
2019-01-26T09:09:22.989Z,34.23
2019-01-26T09:11:56.899Z,35.43
2019-01-26T09:14:25.369Z,29.20
2019-01-26T09:16:56.995Z,27.57
2019-01-26T09:19:25.381Z,32.77
2019-01-26T09:21:54.082Z,25.73
2019-01-26T09:24:23.092Z,28.30
2019-01-26T09:26:51.141Z,20.50
2019-01-26T09:29:19.186Z,22.93
2019-01-26T09:31:47.183Z,25.63
2019-01-26T09:34:21.628Z,27.30
2019-01-26T09:36:50.209Z,26.30
2019-01-26T09:39:18.159Z,24.60
2019-01-26T09:41:46.103Z,24.33
2019-01-26T09:44:13.986Z,23.90
2019-01-26T09:46:41.922Z,22.27
2019-01-26T09:49:17.592Z,24.20
2019-01-26T09:51:50.858Z,25.87
2019-01-26T09:54:20.981Z,24.97
2019-01-26T09:56:49.555Z,28.40
2019-01-26T09:59:22.571Z,25.10
2019-01-26T10:01:50.941Z,25.23
2019-01-26T10:04:22.722Z,29.73
2019-01-26T10:06:50.682Z,31.43
2019-01-26T10:09:18.632Z,31.33
2019-01-26T10:11:46.484Z,33.87
2019-01-26T10:14:16.906Z,32.10
2019-01-26T10:16:44.805Z,30.40
2019-01-26T10:19:12.666Z,30.83
2019-01-26T10:21:43.237Z,29.37
2019-01-26T10:24:11.047Z,32.03
2019-01-26T10:26:38.914Z,32.70
2019-01-26T10:29:06.977Z,36.07
2019-01-26T10:31:35.015Z,26.37
2019-01-26T10:34:03.167Z,29.27
2019-01-26T10:36:38.636Z,29.37
2019-01-26T10:39:14.616Z,25.67
2019-01-26T10:41:57.560Z,29.10
2019-01-26T10:44:28.789Z,23.17
2019-01-26T10:46:56.825Z,26.57
2019-01-26T10:49:24.779Z,27.10
2019-01-26T10:51:52.750Z,26.23
2019-01-26T10:54:22.485Z,23.60
2019-01-26T10:56:50.509Z,22.37
2019-01-26T10:59:18.924Z,20.87
2019-01-26T11:01:47.110Z,22.37
2019-01-26T11:04:15.068Z,20.47
2019-01-26T11:06:43.049Z,21.97
2019-01-26T11:09:12.173Z,15.93
2019-01-26T11:11:40.144Z,15.07
2019-01-26T11:14:08.087Z,14.20
2019-01-26T11:16:36.013Z,18.00
2019-01-26T11:19:07.957Z,13.90
2019-01-26T11:21:35.729Z,11.90
2019-01-26T11:24:03.717Z,13.27
2019-01-26T11:26:32.198Z,12.37
2019-01-26T11:29:00.147Z,10.63
2019-01-26T11:31:31.576Z,8.73
2019-01-26T11:34:00.691Z,11.20
2019-01-26T11:36:31.222Z,9.73
2019-01-26T11:38:59.083Z,9.60
2019-01-26T11:41:27.429Z,9.03
2019-01-26T11:43:55.412Z,10.40
2019-01-26T11:46:34.204Z,7.97
2019-01-26T11:49:02.644Z,7.63
2019-01-26T11:52:11.534Z,10.63
2019-01-26T11:55:26.645Z,8.03
2019-01-26T11:57:55.918Z,7.50
2019-01-26T12:00:46.147Z,7.50
2019-01-26T12:03:32.218Z,6.53
2019-01-26T12:06:10.020Z,6.70
2019-01-26T12:08:41.290Z,7.67
2019-01-26T12:11:11.964Z,7.73
2019-01-26T12:13:39.850Z,6.73
2019-01-26T12:16:07.815Z,7.70
2019-01-26T12:18:35.655Z,7.23
2019-01-26T12:21:05.407Z,6.13
2019-01-26T12:23:33.506Z,6.90
2019-01-26T12:26:02.989Z,4.87
2019-01-26T12:28:30.934Z,5.77
2019-01-26T12:30:59.039Z,7.23
2019-01-26T12:33:26.870Z,5.97
2019-01-26T12:35:54.747Z,3.70
2019-01-26T12:38:23.166Z,4.93
2019-01-26T12:40:51.573Z,3.10
2019-01-26T12:43:29.530Z,3.83
2019-01-26T12:45:58.138Z,4.33
2019-01-26T12:48:28.314Z,4.30
2019-01-26T12:50:57.261Z,5.53
2019-01-26T12:53:38.014Z,2.83
2019-01-26T12:56:08.502Z,5.20
2019-01-26T12:58:38.172Z,3.87
2019-01-26T13:01:06.946Z,3.80
2019-01-26T13:03:36.651Z,5.10
2019-01-26T13:06:25.693Z,5.00
2019-01-26T13:09:06.317Z,5.30
2019-01-26T13:11:36.310Z,4.93
2019-01-26T13:14:25.845Z,5.00
2019-01-26T13:16:57.939Z,6.77
2019-01-26T13:19:28.146Z,5.20
2019-01-26T13:21:59.185Z,4.07
2019-01-26T13:24:31.857Z,4.27
2019-01-26T13:27:04.263Z,6.00
2019-01-26T13:29:37.640Z,5.90
2019-01-26T13:32:12.381Z,4.40
2019-01-26T13:34:40.778Z,5.67
2019-01-26T13:37:11.221Z,5.67
2019-01-26T13:39:45.017Z,3.70
2019-01-26T13:42:16.648Z,3.60
2019-01-26T13:44:44.631Z,3.00
2019-01-26T13:47:14.812Z,4.10
2019-01-26T13:49:58.476Z,4.73
2019-01-26T13:52:29.255Z,3.43
2019-01-26T13:55:04.386Z,6.57
2019-01-26T13:57:36.413Z,4.63
2019-01-26T14:00:11.446Z,6.93
2019-01-26T14:02:39.432Z,6.60
2019-01-26T14:05:07.463Z,7.10
2019-01-26T14:07:35.484Z,10.10
2019-01-26T14:10:05.284Z,8.00
2019-01-26T14:12:34.629Z,8.80
2019-01-26T14:15:06.724Z,8.83
2019-01-26T14:17:39.301Z,9.07
2019-01-26T14:20:11.418Z,10.13
2019-01-26T14:22:42.161Z,8.73
2019-01-26T14:25:13.533Z,9.03
2019-01-26T14:27:41.402Z,8.50
2019-01-26T14:30:18.093Z,8.33
2019-01-26T14:32:52.905Z,7.27
2019-01-26T14:35:21.110Z,7.60
2019-01-26T14:37:57.696Z,7.23
2019-01-26T14:40:28.466Z,6.70
2019-01-26T14:43:02.908Z,6.10
2019-01-26T14:45:30.872Z,6.47
2019-01-26T14:47:58.854Z,7.07
2019-01-26T14:50:26.744Z,6.53
2019-01-26T14:52:54.891Z,6.03
2019-01-26T14:55:23.783Z,6.13
2019-01-26T14:57:52.027Z,6.77
2019-01-26T15:00:34.226Z,5.97
2019-01-26T15:03:02.140Z,5.57
2019-01-26T15:05:30.459Z,5.30
2019-01-26T15:07:58.839Z,5.00
2019-01-26T15:10:26.844Z,5.47
2019-01-26T15:12:54.778Z,4.73
2019-01-26T15:15:26.094Z,4.97
2019-01-26T15:17:53.967Z,4.57
2019-01-26T15:20:25.707Z,4.13
2019-01-26T15:22:54.135Z,3.77
2019-01-26T15:25:22.109Z,5.23
2019-01-26T15:27:50.072Z,3.43
2019-01-26T15:30:22.753Z,3.87
2019-01-26T15:32:52.682Z,4.00
2019-01-26T15:35:20.627Z,3.70
2019-01-26T15:37:48.659Z,3.50
2019-01-26T15:40:16.624Z,3.47
2019-01-26T15:42:44.574Z,3.50
2019-01-26T15:45:21.084Z,5.00
2019-01-26T15:47:49.073Z,3.30
2019-01-26T15:50:17.077Z,4.40
2019-01-26T15:52:45.145Z,3.97
2019-01-26T15:55:16.385Z,2.97
2019-01-26T15:57:44.587Z,3.70
2019-01-26T16:00:17.940Z,4.30
2019-01-26T16:02:47.132Z,2.97
2019-01-26T16:05:16.467Z,4.40
2019-01-26T16:07:44.577Z,3.40
2019-01-26T16:10:31.865Z,4.73
2019-01-26T16:13:01.098Z,4.50
2019-01-26T16:15:31.417Z,3.80
2019-01-26T16:18:01.002Z,3.27
2019-01-26T16:20:29.041Z,8.07
2019-01-26T16:22:57.326Z,5.00
2019-01-26T16:25:27.434Z,3.50
2019-01-26T16:27:58.172Z,4.03
2019-01-26T16:30:30.297Z,3.40
2019-01-26T16:32:58.758Z,2.80
2019-01-26T16:35:27.091Z,2.83
2019-01-26T16:37:55.261Z,3.23
2019-01-26T16:40:29.808Z,3.93
2019-01-26T16:42:58.198Z,5.03
2019-01-26T16:45:34.519Z,6.73
2019-01-26T16:48:10.404Z,7.83
2019-01-26T16:50:41.909Z,8.70
2019-01-26T16:53:13.157Z,9.10
2019-01-26T16:55:44.440Z,7.43
2019-01-26T16:58:17.436Z,10.33
2019-01-26T17:00:56.152Z,8.40
2019-01-26T17:03:29.519Z,9.03
2019-01-26T17:05:58.281Z,8.37
2019-01-26T17:08:29.077Z,9.80
2019-01-26T17:11:00.140Z,7.80
2019-01-26T17:13:28.761Z,9.60
2019-01-26T17:15:58.734Z,8.67
2019-01-26T17:18:26.872Z,9.47
2019-01-26T17:20:57.938Z,7.60
2019-01-26T17:23:30.305Z,11.80
2019-01-26T17:25:58.325Z,7.70
2019-01-26T17:28:27.816Z,8.93
2019-01-26T17:30:55.946Z,8.97
2019-01-26T17:33:30.121Z,9.17
2019-01-26T17:35:59.004Z,10.20
2019-01-26T17:38:28.367Z,11.67
2019-01-26T17:40:57.318Z,11.07
2019-01-26T17:43:26.883Z,12.97
2019-01-26T17:45:56.024Z,12.43
2019-01-26T17:48:27.669Z,12.50
2019-01-26T17:50:56.667Z,16.27
2019-01-26T17:53:26.436Z,13.50
2019-01-26T17:55:54.397Z,14.53
2019-01-26T17:58:22.409Z,14.47
2019-01-26T18:00:57.234Z,15.40
2019-01-26T18:03:25.282Z,15.00
2019-01-26T18:05:53.330Z,15.53
2019-01-26T18:10:57.346Z,16.00
2019-01-26T18:13:25.292Z,17.07
2019-01-26T18:15:53.991Z,17.27
2019-01-26T18:18:22.108Z,20.20
2019-01-26T18:20:50.441Z,20.70
2019-01-26T18:23:44.700Z,20.73
2019-01-26T18:26:13.054Z,19.43
2019-01-26T18:28:45.830Z,20.47
2019-01-26T18:31:13.833Z,19.10
2019-01-26T18:33:41.929Z,21.57
2019-01-26T18:36:13.201Z,21.90
2019-01-26T18:38:45.559Z,23.33
2019-01-26T18:41:28.344Z,18.47
2019-01-26T18:43:57.174Z,20.77
2019-01-26T18:46:25.349Z,22.17
2019-01-26T18:48:55.927Z,20.27
2019-01-26T18:51:25.315Z,20.53
2019-01-26T18:53:56.198Z,21.80
2019-01-26T18:56:24.618Z,21.80
2019-01-26T18:58:53.377Z,22.20
2019-01-26T19:01:29.421Z,23.00
2019-01-26T19:04:36.253Z,20.43
2019-01-26T19:07:05.151Z,24.20
2019-01-26T19:09:33.880Z,24.33
2019-01-26T19:12:08.772Z,20.80
2019-01-26T19:14:38.934Z,24.00
2019-01-26T19:17:09.271Z,23.33
2019-01-26T19:19:39.723Z,23.50
2019-01-26T19:22:07.889Z,24.73
2019-01-26T19:24:35.943Z,22.73
2019-01-26T19:27:06.266Z,23.57
2019-01-26T19:29:35.534Z,21.30
2019-01-26T19:32:04.064Z,20.23
2019-01-26T19:34:32.177Z,21.93
2019-01-26T19:37:09.096Z,23.80
2019-01-26T19:39:32.465Z,22.83
2019-01-26T19:42:02.904Z,22.30
2019-01-26T19:44:31.557Z,23.27
2019-01-26T19:46:59.811Z,22.77
2019-01-26T19:49:27.844Z,24.47
2019-01-26T19:51:58.466Z,20.40
2019-01-26T19:54:30.954Z,22.63
2019-01-26T19:57:01.096Z,22.40
2019-01-26T19:59:29.763Z,21.93
2019-01-26T20:01:58.741Z,23.57
2019-01-26T20:04:28.108Z,20.60
2019-01-26T20:07:00.450Z,23.00
2019-01-26T20:09:31.252Z,21.67
2019-01-26T20:12:01.910Z,23.70
2019-01-26T20:14:29.906Z,21.73
2019-01-26T20:16:58.820Z,21.73
2019-01-26T20:19:27.425Z,21.53
2019-01-26T20:22:17.928Z,22.07
2019-01-26T20:24:49.653Z,21.60
2019-01-26T20:27:18.214Z,21.97
2019-01-26T20:29:48.880Z,20.77
2019-01-26T20:32:21.190Z,20.60
2019-01-26T20:34:49.592Z,21.50
2019-01-26T20:37:17.578Z,20.57
2019-01-26T20:39:52.080Z,20.57
2019-01-26T20:42:22.069Z,19.27
2019-01-26T20:44:56.775Z,18.70
2019-01-26T20:47:26.351Z,19.10
2019-01-26T20:49:55.462Z,15.77
2019-01-26T20:52:32.364Z,16.83
2019-01-26T20:55:03.610Z,15.13
2019-01-26T20:57:34.096Z,14.27
2019-01-26T21:00:02.836Z,13.90
2019-01-26T21:02:35.199Z,12.67
2019-01-26T21:05:06.818Z,13.73
2019-01-26T21:07:36.897Z,13.97
2019-01-26T21:10:12.332Z,13.43
2019-01-26T21:12:41.118Z,12.23
2019-01-26T21:15:12.805Z,13.27
2019-01-26T21:17:41.659Z,14.90
2019-01-26T21:20:15.745Z,13.80
2019-01-26T21:22:49.431Z,14.67
2019-01-26T21:25:17.408Z,12.20
2019-01-26T21:27:48.160Z,13.33
2019-01-26T21:30:25.956Z,12.20
2019-01-26T21:33:01.824Z,11.93
2019-01-26T21:35:33.119Z,12.40
2019-01-26T21:38:04.564Z,12.80
2019-01-26T21:40:36.839Z,11.07
2019-01-26T21:43:08.773Z,11.40
2019-01-26T21:45:48.082Z,11.80
2019-01-26T21:48:28.801Z,10.47
2019-01-26T21:51:04.483Z,11.10
2019-01-26T21:53:35.468Z,13.17
2019-01-26T21:56:08.048Z,10.00
2019-01-26T21:58:39.203Z,10.77
2019-01-26T22:01:10.478Z,9.73
2019-01-26T22:03:41.906Z,9.60
2019-01-26T22:06:11.507Z,8.80
2019-01-26T22:08:42.053Z,9.27
2019-01-26T22:11:14.136Z,9.10
2019-01-26T22:13:44.531Z,8.50
2019-01-26T22:16:13.278Z,12.00
2019-01-26T22:18:41.675Z,11.30
2019-01-26T22:21:19.728Z,9.27
2019-01-26T22:24:13.722Z,8.57
2019-01-26T22:26:44.911Z,9.10
2019-01-26T22:29:14.257Z,10.20
2019-01-26T22:31:43.240Z,9.00
2019-01-26T22:34:13.962Z,10.57
2019-01-26T22:36:44.430Z,11.00
2019-01-26T22:39:24.915Z,10.87
2019-01-26T22:41:57.335Z,11.10
2019-01-26T22:44:28.129Z,10.57
2019-01-26T22:47:01.682Z,10.57
2019-01-26T22:49:31.798Z,11.60
2019-01-26T22:52:03.557Z,11.90
2019-01-26T22:54:32.834Z,12.43
2019-01-26T22:57:27.185Z,11.30
2019-01-26T22:59:59.728Z,12.90
2019-01-26T23:02:28.286Z,11.93
2019-01-26T23:06:08.150Z,12.60
2019-01-26T23:08:39.357Z,13.33
2019-01-26T23:12:30.175Z,11.97
2019-01-26T23:16:11.493Z,11.47
2019-01-26T23:19:54.884Z,13.50
2019-01-26T23:23:25.576Z,13.10
2019-01-26T23:26:57.495Z,14.77
2019-01-26T23:30:12.780Z,12.60
2019-01-26T23:32:44.041Z,12.97
2019-01-26T23:35:14.456Z,14.90
2019-01-26T23:37:48.062Z,13.87
2019-01-26T23:40:27.130Z,14.20
2019-01-26T23:42:55.953Z,13.50
2019-01-26T23:45:27.746Z,15.17
2019-01-26T23:48:02.280Z,15.97
2019-01-26T23:50:43.050Z,15.67
2019-01-26T23:53:16.214Z,15.47
2019-01-26T23:55:46.805Z,15.70
2019-01-26T23:58:14.986Z,17.33
